aviador You're here:

GMFM Decoded Metar

MEKNES in MOROCCO
Report Time2017-10-24 02:00:00
UTC Time2017-10-24 02:21:07
Flight Rules vfr VFR
Wind110° at 09 kt
W.Decomp.*RWY 09: 8.3 kt HW 3.4 kt RCW
RWY 08: 7.6 kt HW 4.8 kt RCW
W.Rank110° ranks 10
Current wind is above 110° avg. (5.4)
Visibility9999 m
Phenomena:N/A
Clouds:N/A
Expected CloudBase > 2,800 ft AGL from Temp-Dew spread
CeilingNone
Temp17°C (ISA +6)
Dew Point10°C (64% RH)
AAT13.8°C
QNH1020 hPa
Density Alt2,392 ft
Elevation1,801 ft
Report Wrong Elevation
Raw Report
GMFM 240200Z 11009KT CAVOK 17/10 Q1020 NOSIG=

Extra information for GMFM:More info

Metar Taf Metar & Taf Last 4 Metars F.Rules Stats Wind Profile Meteogram Temp Stats Airport Information Weather charts Add Link Nearby VenuesMetar ALERT Operation Metar Decoded Social comments